This is the latest recevied weather packets stored in our database for station/object OK3MS-5. If no packets are shown the sender has not sent any weather packets the latest 10 day(s).
| Time | Temp. | Humidity | Pressure | Rain* | Wind** | Luminosity | Snow |
|---|---|---|---|---|---|---|---|
| 1787561704 | 17.22° C | 57% | 1021 hPa | 0 mm | - | 583 W/m² | - |
| 1787561405 | 17.22° C | 57% | 1021 hPa | 0 mm | - | 569 W/m² | - |
| 1787561104 | 17.78° C | 55% | 1021 hPa | 0 mm | - | 546 W/m² | - |
| 1787560803 | 17.22° C | 58% | 1021.3 hPa | 0 mm | - | 544 W/m² | - |
| 1787560503 | 16.67° C | 59% | 1021.4 hPa | 0 mm | - | 552 W/m² | - |
| 1787560208 | 16.67° C | 59% | 1021.3 hPa | 0 mm | - | 457 W/m² | - |
| 1787559903 | 16.67° C | 59% | 1021.4 hPa | 0 mm | - | 446 W/m² | - |
| 1787559605 | 17.22° C | 56% | 1021.3 hPa | 0 mm | - | 410 W/m² | - |
| 1787559303 | 16.67° C | 57% | 1021.3 hPa | 0 mm | - | 262 W/m² | - |
| 1787559005 | 16.67° C | 58% | 1021.3 hPa | 0 mm | - | 432 W/m² | - |
| 1787558706 | 16.11° C | 59% | 1021.4 hPa | 0 mm | - | 429 W/m² | - |
| 1787558406 | 16.11° C | 57% | 1021.5 hPa | 0 mm | - | 406 W/m² | - |
| 1787558103 | 15.56° C | 58% | 1021.6 hPa | 0 mm | - | 371 W/m² | - |
| 1787557803 | 15.56° C | 58% | 1021.5 hPa | 0 mm | - | 371 W/m² | - |
| 1787557503 | 15.56° C | 58% | 1021.6 hPa | 0 mm | - | 349 W/m² | - |
| 1787557203 | 15° C | 60% | 1021.5 hPa | 0 mm | - | 322 W/m² | - |
| 1787556903 | 15° C | 60% | 1021.7 hPa | 0 mm | - | 316 W/m² | - |
| 1787556604 | 15° C | 61% | 1021.7 hPa | 0 mm | - | 358 W/m² | - |
| 1787556303 | 15° C | 60% | 1021.6 hPa | 0 mm | - | 315 W/m² | - |
| 1787556002 | 15.56° C | 61% | 1021.7 hPa | 0 mm | - | 309 W/m² | - |
| 1787555703 | 14.44° C | 64% | 1021.9 hPa | 0 mm | - | 309 W/m² | - |
| 1787555404 | 13.89° C | 70% | 1022 hPa | 0 mm | - | 283 W/m² | - |
| 1787555106 | 13.89° C | 72% | 1022 hPa | 0 mm | - | 254 W/m² | - |
| 1787554802 | 13.33° C | 75% | 1022.1 hPa | 0 mm | - | 263 W/m² | - |
| 1787554504 | 13.33° C | 76% | 1022.1 hPa | 0 mm | - | 249 W/m² | - |
* Rain latest hour (hover to see other rain measurements)
** Current wind speed in m/s (hover to see current wind gust speed)